Altonah, UT

6:09 AM MDT on April 29, 2017 (GMT -0600)
Fort Bridger | | Change Station

Elev 7034 ft 41.39 °N, 110.41 °W | Updated 12 minutes ago

Partly Cloudy
Partly Cloudy
21 °F
Feels Like 16 °F
N
4
Wind Variable Wind from North

Today
High -- | Low -- °F
--% Chance of Precip.
Yesterday
High -- | Low -- °F
Precip. -- in
Pressure 30.18 in
Visibility 10.0 miles
Clouds Scattered Clouds 2300 ft
Overcast 6500 ft
Windchill 16 °F
Dew Point 21 °F
Humidity 100%
Rainfall 0.00 in
Snow Depth Not available.
6:22 AM 8:15 PM
Waxing Crescent, 13% visible
METAR KFBR 291157Z AUTO 36003KT 10SM SCT023 OVC065 M06/M06 A3018 RMK AO2
Pressure 30.18 in
Visibility 10.0 miles
Clouds Scattered Clouds 2300 ft
Overcast 6500 ft
Windchill 16 °F
Dew Point 21 °F
Humidity 100%
Rainfall 0.00 in
Snow Depth Not available.
6:22 AM 8:15 PM
Waxing Crescent, 13% visible
METAR KFBR 291157Z AUTO 36003KT 10SM SCT023 OVC065 M06/M06 A3018 RMK AO2

Get Severe Weather Alerts

Thanks for signing up!

Be on the lookout for a verification email in your inbox.

You'll start receiving the daily forecast at 8 AM.

×

10-Day Weather Forecast

Almanac

Astronomy

Apr. 29, 2017 Rise Set
Actual Time
Civil Twilight
Nautical Twilight
Astronomical Twilight
Moon
Length of Visible Light
Length of Day
Tomorrow will be .
, % of the Moon is Illuminated

Today's Extremes

State Highs State Lows

Community

WunderPhotos

WunderBlog® & News

Nearby

Air Quality

  Air Quality AQ Index Pollutant
Not available.

Snow Depth

Station Depth Elevation

Earthquake Activity

City Distance Mag. Time & Date
Minimum magnitude displayed is 2.5.

Coastal Water Temperatures

Place Temperature

Stations

Nearby Weather Stations

Station Location Temp. Windchill Dew Point Humidity Wind Precip. Elev Updated Type
                   

Watches & Warnings

There are currently no watches in effect.